sensor_id;sensor_type;location;lat;lon;timestamp;temperature;humidity
21275;DHT22;36472;52.170;20.884;2022-08-30T00:00:15;29.40;54.50
21275;DHT22;36472;52.170;20.884;2022-08-30T00:03:05;29.40;55.00
21275;DHT22;36472;52.170;20.884;2022-08-30T00:05:36;28.60;56.00
21275;DHT22;36472;52.170;20.884;2022-08-30T00:08:08;28.60;56.20
21275;DHT22;36472;52.170;20.884;2022-08-30T00:10:39;28.60;56.00
21275;DHT22;36472;52.170;20.884;2022-08-30T00:13:10;28.70;55.80
21275;DHT22;36472;52.170;20.884;2022-08-30T00:15:41;28.90;56.00
21275;DHT22;36472;52.170;20.884;2022-08-30T00:18:10;28.90;55.80
21275;DHT22;36472;52.170;20.884;2022-08-30T00:20:39;29.00;55.80
21275;DHT22;36472;52.170;20.884;2022-08-30T00:23:08;28.90;55.90
21275;DHT22;36472;52.170;20.884;2022-08-30T00:25:38;28.70;55.90
21275;DHT22;36472;52.170;20.884;2022-08-30T00:28:07;28.50;56.50
21275;DHT22;36472;52.170;20.884;2022-08-30T00:30:37;27.50;58.30
21275;DHT22;36472;52.170;20.884;2022-08-30T00:33:06;27.00;59.40
21275;DHT22;36472;52.170;20.884;2022-08-30T00:35:36;26.90;59.80
21275;DHT22;36472;52.170;20.884;2022-08-30T00:38:06;26.90;60.00
21275;DHT22;36472;52.170;20.884;2022-08-30T00:40:39;26.80;60.40
21275;DHT22;36472;52.170;20.884;2022-08-30T00:43:13;26.80;60.50
21275;DHT22;36472;52.170;20.884;2022-08-30T00:45:46;27.00;60.00
21275;DHT22;36472;52.170;20.884;2022-08-30T00:48:15;27.20;59.90
21275;DHT22;36472;52.170;20.884;2022-08-30T00:50:46;27.20;59.60
21275;DHT22;36472;52.170;20.884;2022-08-30T00:53:20;27.60;59.80
21275;DHT22;36472;52.170;20.884;2022-08-30T00:55:55;27.80;58.40
21275;DHT22;36472;52.170;20.884;2022-08-30T00:58:30;27.30;59.20
21275;DHT22;36472;52.170;20.884;2022-08-30T01:01:03;27.70;58.90
21275;DHT22;36472;52.170;20.884;2022-08-30T01:03:35;27.80;58.40
21275;DHT22;36472;52.170;20.884;2022-08-30T01:06:06;27.90;58.30
21275;DHT22;36472;52.170;20.884;2022-08-30T01:08:35;27.80;58.30
21275;DHT22;36472;52.170;20.884;2022-08-30T01:11:06;28.10;57.80
21275;DHT22;36472;52.170;20.884;2022-08-30T01:13:36;28.20;57.40
21275;DHT22;36472;52.170;20.884;2022-08-30T01:16:07;28.40;57.10
21275;DHT22;36472;52.170;20.884;2022-08-30T01:18:36;28.10;57.50
21275;DHT22;36472;52.170;20.884;2022-08-30T01:21:14;27.70;58.20
21275;DHT22;36472;52.170;20.884;2022-08-30T01:23:49;27.50;59.10
21275;DHT22;36472;52.170;20.884;2022-08-30T01:26:21;27.60;59.00
21275;DHT22;36472;52.170;20.884;2022-08-30T01:28:54;27.50;59.10
21275;DHT22;36472;52.170;20.884;2022-08-30T01:31:27;27.50;59.10
21275;DHT22;36472;52.170;20.884;2022-08-30T01:33:56;27.70;58.90
21275;DHT22;36472;52.170;20.884;2022-08-30T01:36:24;27.90;58.50
21275;DHT22;36472;52.170;20.884;2022-08-30T01:38:56;28.10;57.90
21275;DHT22;36472;52.170;20.884;2022-08-30T01:41:28;28.20;58.40
21275;DHT22;36472;52.170;20.884;2022-08-30T01:44:00;28.50;58.10
21275;DHT22;36472;52.170;20.884;2022-08-30T01:46:33;28.50;56.80
21275;DHT22;36472;52.170;20.884;2022-08-30T01:49:07;28.50;58.00
21275;DHT22;36472;52.170;20.884;2022-08-30T01:51:38;28.50;57.20
21275;DHT22;36472;52.170;20.884;2022-08-30T01:54:09;28.30;57.20
21275;DHT22;36472;52.170;20.884;2022-08-30T01:56:38;28.30;57.20
21275;DHT22;36472;52.170;20.884;2022-08-30T01:59:07;28.30;57.20
21275;DHT22;36472;52.170;20.884;2022-08-30T02:01:36;28.50;57.20
21275;DHT22;36472;52.170;20.884;2022-08-30T02:04:08;28.40;56.90
21275;DHT22;36472;52.170;20.884;2022-08-30T02:06:38;28.50;56.60
21275;DHT22;36472;52.170;20.884;2022-08-30T02:09:08;28.60;56.60
21275;DHT22;36472;52.170;20.884;2022-08-30T02:11:38;28.80;56.60
21275;DHT22;36472;52.170;20.884;2022-08-30T02:14:07;28.90;56.30
21275;DHT22;36472;52.170;20.884;2022-08-30T02:16:36;28.80;56.60
21275;DHT22;36472;52.170;20.884;2022-08-30T02:19:06;28.70;56.60
21275;DHT22;36472;52.170;20.884;2022-08-30T02:21:39;28.70;56.50
21275;DHT22;36472;52.170;20.884;2022-08-30T02:24:09;28.70;56.80
21275;DHT22;36472;52.170;20.884;2022-08-30T02:26:38;28.80;56.60
21275;DHT22;36472;52.170;20.884;2022-08-30T02:29:07;28.80;56.50
21275;DHT22;36472;52.170;20.884;2022-08-30T02:31:36;28.70;56.60
21275;DHT22;36472;52.170;20.884;2022-08-30T02:34:05;28.80;56.70
21275;DHT22;36472;52.170;20.884;2022-08-30T02:36:35;28.60;57.50
21275;DHT22;36472;52.170;20.884;2022-08-30T02:39:05;28.60;56.90
21275;DHT22;36472;52.170;20.884;2022-08-30T02:41:36;28.70;56.90
21275;DHT22;36472;52.170;20.884;2022-08-30T02:44:06;28.60;56.80
21275;DHT22;36472;52.170;20.884;2022-08-30T02:46:36;28.50;57.00
21275;DHT22;36472;52.170;20.884;2022-08-30T02:49:06;28.60;57.70
21275;DHT22;36472;52.170;20.884;2022-08-30T02:51:55;28.60;57.10
21275;DHT22;36472;52.170;20.884;2022-08-30T02:54:24;28.50;56.90
21275;DHT22;36472;52.170;20.884;2022-08-30T02:56:55;28.50;57.20
21275;DHT22;36472;52.170;20.884;2022-08-30T02:59:24;28.50;57.20
21275;DHT22;36472;52.170;20.884;2022-08-30T03:01:53;28.50;57.20
21275;DHT22;36472;52.170;20.884;2022-08-30T03:04:22;28.50;57.00
21275;DHT22;36472;52.170;20.884;2022-08-30T03:06:53;28.50;57.00
21275;DHT22;36472;52.170;20.884;2022-08-30T03:09:25;28.60;57.00
21275;DHT22;36472;52.170;20.884;2022-08-30T03:11:55;28.60;56.60
21275;DHT22;36472;52.170;20.884;2022-08-30T03:14:24;28.70;56.50
21275;DHT22;36472;52.170;20.884;2022-08-30T03:16:54;28.70;57.10
21275;DHT22;36472;52.170;20.884;2022-08-30T03:19:23;28.70;56.40
21275;DHT22;36472;52.170;20.884;2022-08-30T03:21:52;28.70;56.40
21275;DHT22;36472;52.170;20.884;2022-08-30T03:24:21;28.90;56.40
21275;DHT22;36472;52.170;20.884;2022-08-30T03:26:50;28.90;56.00
21275;DHT22;36472;52.170;20.884;2022-08-30T03:29:20;29.00;56.20
21275;DHT22;36472;52.170;20.884;2022-08-30T03:31:49;28.90;56.10
21275;DHT22;36472;52.170;20.884;2022-08-30T03:34:20;28.80;56.10
21275;DHT22;36472;52.170;20.884;2022-08-30T03:36:50;28.90;56.00
21275;DHT22;36472;52.170;20.884;2022-08-30T03:39:21;28.80;56.10
21275;DHT22;36472;52.170;20.884;2022-08-30T03:41:51;28.70;56.10
21275;DHT22;36472;52.170;20.884;2022-08-30T03:44:21;28.70;56.20
21275;DHT22;36472;52.170;20.884;2022-08-30T03:46:50;28.80;56.10
21275;DHT22;36472;52.170;20.884;2022-08-30T03:49:20;28.80;56.20
21275;DHT22;36472;52.170;20.884;2022-08-30T03:51:50;28.90;56.00
21275;DHT22;36472;52.170;20.884;2022-08-30T03:54:19;29.00;55.90
21275;DHT22;36472;52.170;20.884;2022-08-30T03:56:51;29.00;55.80
21275;DHT22;36472;52.170;20.884;2022-08-30T03:59:21;29.00;55.80
21275;DHT22;36472;52.170;20.884;2022-08-30T04:01:50;28.90;55.90
21275;DHT22;36472;52.170;20.884;2022-08-30T04:04:19;28.90;56.00
21275;DHT22;36472;52.170;20.884;2022-08-30T04:06:48;28.90;55.90
21275;DHT22;36472;52.170;20.884;2022-08-30T04:09:17;28.80;56.10
21275;DHT22;36472;52.170;20.884;2022-08-30T04:11:46;28.90;56.20
21275;DHT22;36472;52.170;20.884;2022-08-30T04:14:15;28.80;56.30
21275;DHT22;36472;52.170;20.884;2022-08-30T04:16:46;28.80;56.40
21275;DHT22;36472;52.170;20.884;2022-08-30T04:19:14;28.40;57.10
21275;DHT22;36472;52.170;20.884;2022-08-30T04:21:44;28.30;57.20
21275;DHT22;36472;52.170;20.884;2022-08-30T04:24:13;28.20;57.50
21275;DHT22;36472;52.170;20.884;2022-08-30T04:26:42;28.20;57.50
21275;DHT22;36472;52.170;20.884;2022-08-30T04:29:11;28.10;57.70
21275;DHT22;36472;52.170;20.884;2022-08-30T04:31:43;28.00;58.00
21275;DHT22;36472;52.170;20.884;2022-08-30T04:34:14;28.20;58.10
21275;DHT22;36472;52.170;20.884;2022-08-30T04:36:43;28.10;58.10
21275;DHT22;36472;52.170;20.884;2022-08-30T04:39:14;27.90;58.70
21275;DHT22;36472;52.170;20.884;2022-08-30T04:41:44;27.60;59.20
21275;DHT22;36472;52.170;20.884;2022-08-30T04:44:13;27.80;59.80
21275;DHT22;36472;52.170;20.884;2022-08-30T04:46:46;27.60;59.50
21275;DHT22;36472;52.170;20.884;2022-08-30T04:49:16;27.70;59.40
21275;DHT22;36472;52.170;20.884;2022-08-30T04:51:44;27.40;59.80
21275;DHT22;36472;52.170;20.884;2022-08-30T04:54:13;27.70;60.20
21275;DHT22;36472;52.170;20.884;2022-08-30T04:56:42;27.80;59.50
21275;DHT22;36472;52.170;20.884;2022-08-30T04:59:11;28.00;59.20
21275;DHT22;36472;52.170;20.884;2022-08-30T05:01:40;27.70;59.60
21275;DHT22;36472;52.170;20.884;2022-08-30T05:04:12;27.50;60.50
21275;DHT22;36472;52.170;20.884;2022-08-30T05:06:43;27.10;61.10
21275;DHT22;36472;52.170;20.884;2022-08-30T05:09:12;27.10;61.60
21275;DHT22;36472;52.170;20.884;2022-08-30T05:11:41;26.90;61.40
21275;DHT22;36472;52.170;20.884;2022-08-30T05:14:10;26.60;62.30
21275;DHT22;36472;52.170;20.884;2022-08-30T05:16:39;26.50;62.30
21275;DHT22;36472;52.170;20.884;2022-08-30T05:19:08;26.10;64.00
21275;DHT22;36472;52.170;20.884;2022-08-30T05:21:37;25.90;64.30
21275;DHT22;36472;52.170;20.884;2022-08-30T05:24:09;26.20;63.90
21275;DHT22;36472;52.170;20.884;2022-08-30T05:26:37;26.70;62.70
21275;DHT22;36472;52.170;20.884;2022-08-30T05:29:07;26.60;62.30
21275;DHT22;36472;52.170;20.884;2022-08-30T05:31:36;25.80;64.20
21275;DHT22;36472;52.170;20.884;2022-08-30T05:34:04;26.20;63.70
21275;DHT22;36472;52.170;20.884;2022-08-30T05:36:34;25.90;64.40
21275;DHT22;36472;52.170;20.884;2022-08-30T05:39:05;26.30;63.60
21275;DHT22;36472;52.170;20.884;2022-08-30T05:41:38;26.20;63.20
21275;DHT22;36472;52.170;20.884;2022-08-30T05:44:07;26.00;64.00
21275;DHT22;36472;52.170;20.884;2022-08-30T05:46:37;25.70;64.40
21275;DHT22;36472;52.170;20.884;2022-08-30T05:49:11;25.60;65.00
21275;DHT22;36472;52.170;20.884;2022-08-30T05:51:40;26.10;64.10
21275;DHT22;36472;52.170;20.884;2022-08-30T05:54:11;25.60;65.10
21275;DHT22;36472;52.170;20.884;2022-08-30T05:56:44;25.50;65.90
21275;DHT22;36472;52.170;20.884;2022-08-30T05:59:14;25.40;65.60
21275;DHT22;36472;52.170;20.884;2022-08-30T06:01:44;25.80;64.80
21275;DHT22;36472;52.170;20.884;2022-08-30T06:04:15;25.50;65.00
21275;DHT22;36472;52.170;20.884;2022-08-30T06:06:44;25.50;65.60
21275;DHT22;36472;52.170;20.884;2022-08-30T06:09:13;25.30;65.70
21275;DHT22;36472;52.170;20.884;2022-08-30T06:11:44;25.60;65.70
21275;DHT22;36472;52.170;20.884;2022-08-30T06:14:14;25.80;65.00
21275;DHT22;36472;52.170;20.884;2022-08-30T06:16:43;26.00;64.60
21275;DHT22;36472;52.170;20.884;2022-08-30T06:19:14;26.00;63.70
21275;DHT22;36472;52.170;20.884;2022-08-30T06:21:47;25.80;64.80
21275;DHT22;36472;52.170;20.884;2022-08-30T06:24:16;26.00;64.30
21275;DHT22;36472;52.170;20.884;2022-08-30T06:26:52;26.00;64.20
21275;DHT22;36472;52.170;20.884;2022-08-30T06:29:21;25.50;64.50
21275;DHT22;36472;52.170;20.884;2022-08-30T06:31:50;25.70;64.80
21275;DHT22;36472;52.170;20.884;2022-08-30T06:34:19;25.70;64.60
21275;DHT22;36472;52.170;20.884;2022-08-30T06:36:47;25.60;65.10
21275;DHT22;36472;52.170;20.884;2022-08-30T06:39:16;25.60;65.00
21275;DHT22;36472;52.170;20.884;2022-08-30T06:41:45;26.10;64.90
21275;DHT22;36472;52.170;20.884;2022-08-30T06:44:24;26.20;63.90
21275;DHT22;36472;52.170;20.884;2022-08-30T06:46:53;26.90;62.50
21275;DHT22;36472;52.170;20.884;2022-08-30T06:49:22;27.20;61.00
21275;DHT22;36472;52.170;20.884;2022-08-30T06:51:52;27.50;61.00
21275;DHT22;36472;52.170;20.884;2022-08-30T06:54:21;28.00;59.50
21275;DHT22;36472;52.170;20.884;2022-08-30T06:56:50;28.00;59.30
21275;DHT22;36472;52.170;20.884;2022-08-30T06:59:27;28.40;58.70
21275;DHT22;36472;52.170;20.884;2022-08-30T07:01:55;28.30;58.30
21275;DHT22;36472;52.170;20.884;2022-08-30T07:04:24;27.90;59.10
21275;DHT22;36472;52.170;20.884;2022-08-30T07:06:53;28.10;58.80
21275;DHT22;36472;52.170;20.884;2022-08-30T07:09:22;28.10;58.30
21275;DHT22;36472;52.170;20.884;2022-08-30T07:11:52;27.90;59.00
21275;DHT22;36472;52.170;20.884;2022-08-30T07:14:21;28.20;58.60
21275;DHT22;36472;52.170;20.884;2022-08-30T07:16:51;27.70;59.10
21275;DHT22;36472;52.170;20.884;2022-08-30T07:19:21;28.20;58.70
21275;DHT22;36472;52.170;20.884;2022-08-30T07:21:49;27.60;59.40
21275;DHT22;36472;52.170;20.884;2022-08-30T07:24:19;27.40;59.40
21275;DHT22;36472;52.170;20.884;2022-08-30T07:26:49;27.60;59.30
21275;DHT22;36472;52.170;20.884;2022-08-30T07:29:19;27.80;59.00
21275;DHT22;36472;52.170;20.884;2022-08-30T07:31:48;27.70;59.80
21275;DHT22;36472;52.170;20.884;2022-08-30T07:34:18;28.20;58.90
21275;DHT22;36472;52.170;20.884;2022-08-30T07:36:52;27.50;59.60
21275;DHT22;36472;52.170;20.884;2022-08-30T07:39:20;27.50;59.80
21275;DHT22;36472;52.170;20.884;2022-08-30T07:41:49;28.10;59.60
21275;DHT22;36472;52.170;20.884;2022-08-30T07:44:18;28.20;58.10
21275;DHT22;36472;52.170;20.884;2022-08-30T07:46:51;28.60;57.90
21275;DHT22;36472;52.170;20.884;2022-08-30T07:49:21;28.80;57.40
21275;DHT22;36472;52.170;20.884;2022-08-30T07:51:50;28.70;57.10
21275;DHT22;36472;52.170;20.884;2022-08-30T07:54:18;28.70;57.40
21275;DHT22;36472;52.170;20.884;2022-08-30T07:56:47;29.00;57.20
21275;DHT22;36472;52.170;20.884;2022-08-30T07:59:16;28.90;57.10
21275;DHT22;36472;52.170;20.884;2022-08-30T08:01:45;28.80;57.40
21275;DHT22;36472;52.170;20.884;2022-08-30T08:04:14;29.30;56.70
21275;DHT22;36472;52.170;20.884;2022-08-30T08:06:44;28.80;56.40
21275;DHT22;36472;52.170;20.884;2022-08-30T08:09:13;28.90;56.50
21275;DHT22;36472;52.170;20.884;2022-08-30T08:11:42;28.70;56.80
21275;DHT22;36472;52.170;20.884;2022-08-30T08:14:11;29.10;56.90
21275;DHT22;36472;52.170;20.884;2022-08-30T08:16:45;28.70;57.30
21275;DHT22;36472;52.170;20.884;2022-08-30T08:19:14;29.10;57.20
21275;DHT22;36472;52.170;20.884;2022-08-30T08:21:45;29.40;56.70
21275;DHT22;36472;52.170;20.884;2022-08-30T08:24:26;29.30;56.50
21275;DHT22;36472;52.170;20.884;2022-08-30T08:26:55;29.50;56.80
21275;DHT22;36472;52.170;20.884;2022-08-30T08:29:24;29.60;56.10
21275;DHT22;36472;52.170;20.884;2022-08-30T08:31:53;29.90;54.60
21275;DHT22;36472;52.170;20.884;2022-08-30T08:34:23;29.10;55.40
21275;DHT22;36472;52.170;20.884;2022-08-30T08:36:53;29.40;55.60
21275;DHT22;36472;52.170;20.884;2022-08-30T08:39:22;29.90;55.10
21275;DHT22;36472;52.170;20.884;2022-08-30T08:41:57;30.40;53.50
21275;DHT22;36472;52.170;20.884;2022-08-30T08:44:44;30.20;54.00
21275;DHT22;36472;52.170;20.884;2022-08-30T08:47:25;30.40;54.00
21275;DHT22;36472;52.170;20.884;2022-08-30T08:50:01;30.10;54.40
21275;DHT22;36472;52.170;20.884;2022-08-30T08:52:46;30.20;53.80
21275;DHT22;36472;52.170;20.884;2022-08-30T08:55:47;30.40;54.60
21275;DHT22;36472;52.170;20.884;2022-08-30T08:58:22;29.50;54.90
21275;DHT22;36472;52.170;20.884;2022-08-30T09:00:53;29.00;55.60
21275;DHT22;36472;52.170;20.884;2022-08-30T09:03:26;29.00;56.20
21275;DHT22;36472;52.170;20.884;2022-08-30T09:05:56;28.80;57.10
21275;DHT22;36472;52.170;20.884;2022-08-30T09:08:38;28.70;57.00
21275;DHT22;36472;52.170;20.884;2022-08-30T09:11:07;28.60;57.00
21275;DHT22;36472;52.170;20.884;2022-08-30T09:13:42;28.40;57.40
21275;DHT22;36472;52.170;20.884;2022-08-30T09:19:40;29.50;56.30
21275;DHT22;36472;52.170;20.884;2022-08-30T09:22:25;29.50;55.70
21275;DHT22;36472;52.170;20.884;2022-08-30T09:25:05;29.70;55.70
21275;DHT22;36472;52.170;20.884;2022-08-30T09:27:37;29.40;55.60
21275;DHT22;36472;52.170;20.884;2022-08-30T09:30:09;29.70;55.40
21275;DHT22;36472;52.170;20.884;2022-08-30T09:32:51;30.20;55.00
21275;DHT22;36472;52.170;20.884;2022-08-30T09:35:24;30.70;54.20
21275;DHT22;36472;52.170;20.884;2022-08-30T09:38:04;30.90;53.60
21275;DHT22;36472;52.170;20.884;2022-08-30T09:40:41;30.50;53.70
21275;DHT22;36472;52.170;20.884;2022-08-30T09:43:20;30.30;54.30
21275;DHT22;36472;52.170;20.884;2022-08-30T09:46:06;30.00;54.90
21275;DHT22;36472;52.170;20.884;2022-08-30T09:48:43;30.10;55.60
21275;DHT22;36472;52.170;20.884;2022-08-30T09:51:39;30.00;56.00
21275;DHT22;36472;52.170;20.884;2022-08-30T09:54:22;29.60;55.80
21275;DHT22;36472;52.170;20.884;2022-08-30T09:57:05;29.50;56.10
21275;DHT22;36472;52.170;20.884;2022-08-30T09:59:45;29.90;56.10
21275;DHT22;36472;52.170;20.884;2022-08-30T10:02:39;29.70;56.30
21275;DHT22;36472;52.170;20.884;2022-08-30T10:05:21;29.50;56.60
21275;DHT22;36472;52.170;20.884;2022-08-30T10:08:01;28.90;57.50
21275;DHT22;36472;52.170;20.884;2022-08-30T10:10:50;29.30;57.20
21275;DHT22;36472;52.170;20.884;2022-08-30T10:13:38;29.70;56.80
21275;DHT22;36472;52.170;20.884;2022-08-30T10:16:42;29.90;55.40
21275;DHT22;36472;52.170;20.884;2022-08-30T10:19:24;30.30;55.00
21275;DHT22;36472;52.170;20.884;2022-08-30T10:22:05;30.50;54.10
21275;DHT22;36472;52.170;20.884;2022-08-30T10:24:43;30.60;54.30
21275;DHT22;36472;52.170;20.884;2022-08-30T10:27:18;30.40;53.70
21275;DHT22;36472;52.170;20.884;2022-08-30T10:29:55;30.60;53.60
21275;DHT22;36472;52.170;20.884;2022-08-30T10:32:32;30.00;55.00
21275;DHT22;36472;52.170;20.884;2022-08-30T10:35:09;30.00;55.00
21275;DHT22;36472;52.170;20.884;2022-08-30T10:37:49;30.20;54.50
21275;DHT22;36472;52.170;20.884;2022-08-30T10:40:26;29.40;55.40
21275;DHT22;36472;52.170;20.884;2022-08-30T10:43:22;29.70;55.40
21275;DHT22;36472;52.170;20.884;2022-08-30T10:46:02;30.00;54.40
21275;DHT22;36472;52.170;20.884;2022-08-30T10:48:41;29.50;55.10
21275;DHT22;36472;52.170;20.884;2022-08-30T10:51:15;29.60;55.70
21275;DHT22;36472;52.170;20.884;2022-08-30T10:53:55;29.40;55.80
21275;DHT22;36472;52.170;20.884;2022-08-30T10:56:30;29.40;55.20
21275;DHT22;36472;52.170;20.884;2022-08-30T10:58:59;29.00;56.00
21275;DHT22;36472;52.170;20.884;2022-08-30T11:01:50;29.40;56.00
21275;DHT22;36472;52.170;20.884;2022-08-30T11:04:52;29.20;56.10
21275;DHT22;36472;52.170;20.884;2022-08-30T11:07:52;29.10;56.50
21275;DHT22;36472;52.170;20.884;2022-08-30T11:10:52;28.90;56.80
21275;DHT22;36472;52.170;20.884;2022-08-30T11:13:31;29.00;57.00
21275;DHT22;36472;52.170;20.884;2022-08-30T11:16:08;29.00;55.70
21275;DHT22;36472;52.170;20.884;2022-08-30T11:18:45;28.50;58.10
21275;DHT22;36472;52.170;20.884;2022-08-30T11:21:22;28.80;56.40
21275;DHT22;36472;52.170;20.884;2022-08-30T11:24:01;29.00;56.50
21275;DHT22;36472;52.170;20.884;2022-08-30T11:26:59;29.20;56.60
21275;DHT22;36472;52.170;20.884;2022-08-30T11:29:35;29.20;56.10
21275;DHT22;36472;52.170;20.884;2022-08-30T11:32:21;29.10;55.30
21275;DHT22;36472;52.170;20.884;2022-08-30T11:35:07;29.50;55.40
21275;DHT22;36472;52.170;20.884;2022-08-30T11:37:40;29.60;55.10
21275;DHT22;36472;52.170;20.884;2022-08-30T11:40:41;29.70;54.80
21275;DHT22;36472;52.170;20.884;2022-08-30T11:43:49;29.70;53.80
21275;DHT22;36472;52.170;20.884;2022-08-30T11:46:36;30.00;54.10
21275;DHT22;36472;52.170;20.884;2022-08-30T11:49:37;29.60;54.70
21275;DHT22;36472;52.170;20.884;2022-08-30T11:52:44;30.10;54.40
21275;DHT22;36472;52.170;20.884;2022-08-30T11:55:43;30.30;53.70
21275;DHT22;36472;52.170;20.884;2022-08-30T11:58:27;29.90;54.20
21275;DHT22;36472;52.170;20.884;2022-08-30T12:01:17;29.50;53.60
21275;DHT22;36472;52.170;20.884;2022-08-30T12:04:11;29.00;54.90
21275;DHT22;36472;52.170;20.884;2022-08-30T12:06:54;28.40;55.40
21275;DHT22;36472;52.170;20.884;2022-08-30T12:12:52;29.30;55.10
21275;DHT22;36472;52.170;20.884;2022-08-30T12:15:53;29.60;54.10
21275;DHT22;36472;52.170;20.884;2022-08-30T12:18:27;29.50;54.50
21275;DHT22;36472;52.170;20.884;2022-08-30T12:21:03;29.60;53.40
21275;DHT22;36472;52.170;20.884;2022-08-30T12:23:47;30.00;53.30
21275;DHT22;36472;52.170;20.884;2022-08-30T12:26:31;29.70;53.50
21275;DHT22;36472;52.170;20.884;2022-08-30T12:29:09;29.50;54.60
21275;DHT22;36472;52.170;20.884;2022-08-30T12:31:46;29.60;53.70
21275;DHT22;36472;52.170;20.884;2022-08-30T12:34:22;30.30;54.00
21275;DHT22;36472;52.170;20.884;2022-08-30T12:36:57;30.20;51.80
21275;DHT22;36472;52.170;20.884;2022-08-30T12:39:33;30.40;51.50
21275;DHT22;36472;52.170;20.884;2022-08-30T12:42:16;30.30;51.10
21275;DHT22;36472;52.170;20.884;2022-08-30T12:44:51;30.30;51.80
21275;DHT22;36472;52.170;20.884;2022-08-30T12:47:24;30.10;51.20
21275;DHT22;36472;52.170;20.884;2022-08-30T12:49:59;29.90;51.50
21275;DHT22;36472;52.170;20.884;2022-08-30T12:52:31;30.00;50.30
21275;DHT22;36472;52.170;20.884;2022-08-30T12:55:10;29.60;51.10
21275;DHT22;36472;52.170;20.884;2022-08-30T12:57:58;29.80;51.20
21275;DHT22;36472;52.170;20.884;2022-08-30T13:00:31;29.40;51.40
21275;DHT22;36472;52.170;20.884;2022-08-30T13:03:02;29.10;52.00
21275;DHT22;36472;52.170;20.884;2022-08-30T13:05:45;28.60;53.20
21275;DHT22;36472;52.170;20.884;2022-08-30T13:08:21;27.90;55.00
21275;DHT22;36472;52.170;20.884;2022-08-30T13:10:57;28.10;55.40
21275;DHT22;36472;52.170;20.884;2022-08-30T13:13:38;28.70;54.30
21275;DHT22;36472;52.170;20.884;2022-08-30T13:16:21;28.90;54.10
21275;DHT22;36472;52.170;20.884;2022-08-30T13:19:19;28.60;53.40
21275;DHT22;36472;52.170;20.884;2022-08-30T13:21:59;28.80;53.20
21275;DHT22;36472;52.170;20.884;2022-08-30T13:24:28;28.60;54.00
21275;DHT22;36472;52.170;20.884;2022-08-30T13:27:02;28.90;54.00
21275;DHT22;36472;52.170;20.884;2022-08-30T13:29:37;28.80;54.10
21275;DHT22;36472;52.170;20.884;2022-08-30T13:32:08;28.60;55.00
21275;DHT22;36472;52.170;20.884;2022-08-30T13:34:38;28.80;54.80
21275;DHT22;36472;52.170;20.884;2022-08-30T13:37:09;28.50;54.10
21275;DHT22;36472;52.170;20.884;2022-08-30T13:40:02;28.30;55.30
21275;DHT22;36472;52.170;20.884;2022-08-30T13:42:32;28.10;55.40
21275;DHT22;36472;52.170;20.884;2022-08-30T13:45:04;28.20;55.40
21275;DHT22;36472;52.170;20.884;2022-08-30T13:47:54;28.30;55.00
21275;DHT22;36472;52.170;20.884;2022-08-30T13:50:23;28.10;56.10
21275;DHT22;36472;52.170;20.884;2022-08-30T13:52:53;28.50;55.40
21275;DHT22;36472;52.170;20.884;2022-08-30T13:55:22;28.90;53.80
21275;DHT22;36472;52.170;20.884;2022-08-30T13:57:51;29.20;53.70
21275;DHT22;36472;52.170;20.884;2022-08-30T14:00:23;29.70;53.20
21275;DHT22;36472;52.170;20.884;2022-08-30T14:02:53;29.90;52.70
21275;DHT22;36472;52.170;20.884;2022-08-30T14:05:28;29.90;52.60
21275;DHT22;36472;52.170;20.884;2022-08-30T14:08:20;29.80;52.90
21275;DHT22;36472;52.170;20.884;2022-08-30T14:11:11;30.10;52.00
21275;DHT22;36472;52.170;20.884;2022-08-30T14:13:45;29.40;53.00
21275;DHT22;36472;52.170;20.884;2022-08-30T14:16:37;29.50;53.00
21275;DHT22;36472;52.170;20.884;2022-08-30T14:19:09;29.70;53.30
21275;DHT22;36472;52.170;20.884;2022-08-30T14:21:38;29.60;53.40
21275;DHT22;36472;52.170;20.884;2022-08-30T14:24:09;29.60;53.30
21275;DHT22;36472;52.170;20.884;2022-08-30T14:26:43;29.50;53.00
21275;DHT22;36472;52.170;20.884;2022-08-30T14:29:17;29.60;53.50
21275;DHT22;36472;52.170;20.884;2022-08-30T14:31:49;28.90;53.90
21275;DHT22;36472;52.170;20.884;2022-08-30T14:34:18;28.70;54.80
21275;DHT22;36472;52.170;20.884;2022-08-30T14:36:47;29.10;54.80
21275;DHT22;36472;52.170;20.884;2022-08-30T14:39:18;29.40;53.50
21275;DHT22;36472;52.170;20.884;2022-08-30T14:41:50;29.70;53.10
21275;DHT22;36472;52.170;20.884;2022-08-30T14:44:23;29.60;53.40
21275;DHT22;36472;52.170;20.884;2022-08-30T14:46:54;29.90;52.80
21275;DHT22;36472;52.170;20.884;2022-08-30T14:49:25;30.00;52.80
21275;DHT22;36472;52.170;20.884;2022-08-30T14:51:55;30.00;52.20
21275;DHT22;36472;52.170;20.884;2022-08-30T14:54:29;29.90;52.90
21275;DHT22;36472;52.170;20.884;2022-08-30T14:56:58;29.90;53.40
21275;DHT22;36472;52.170;20.884;2022-08-30T14:59:27;29.80;53.30
21275;DHT22;36472;52.170;20.884;2022-08-30T15:01:57;29.50;53.50
21275;DHT22;36472;52.170;20.884;2022-08-30T15:04:26;29.50;53.70
21275;DHT22;36472;52.170;20.884;2022-08-30T15:06:57;29.30;54.00
21275;DHT22;36472;52.170;20.884;2022-08-30T15:09:26;29.60;54.00
21275;DHT22;36472;52.170;20.884;2022-08-30T15:11:56;29.40;54.30
21275;DHT22;36472;52.170;20.884;2022-08-30T15:14:30;29.70;53.10
21275;DHT22;36472;52.170;20.884;2022-08-30T15:17:01;29.60;52.60
21275;DHT22;36472;52.170;20.884;2022-08-30T15:19:30;29.20;53.10
21275;DHT22;36472;52.170;20.884;2022-08-30T15:22:01;28.80;54.30
21275;DHT22;36472;52.170;20.884;2022-08-30T15:24:32;29.10;53.90
21275;DHT22;36472;52.170;20.884;2022-08-30T15:27:02;29.60;53.20
21275;DHT22;36472;52.170;20.884;2022-08-30T15:29:32;29.70;53.20
21275;DHT22;36472;52.170;20.884;2022-08-30T15:32:03;29.50;53.00
21275;DHT22;36472;52.170;20.884;2022-08-30T15:34:33;29.40;53.60
21275;DHT22;36472;52.170;20.884;2022-08-30T15:37:02;29.90;53.40
21275;DHT22;36472;52.170;20.884;2022-08-30T15:39:34;29.90;53.20
21275;DHT22;36472;52.170;20.884;2022-08-30T15:42:03;29.70;53.10
21275;DHT22;36472;52.170;20.884;2022-08-30T15:44:32;29.30;53.70
21275;DHT22;36472;52.170;20.884;2022-08-30T15:47:03;29.00;54.70
21275;DHT22;36472;52.170;20.884;2022-08-30T15:49:32;28.70;55.30
21275;DHT22;36472;52.170;20.884;2022-08-30T15:52:02;28.60;55.50
21275;DHT22;36472;52.170;20.884;2022-08-30T15:54:34;28.10;56.20
21275;DHT22;36472;52.170;20.884;2022-08-30T15:57:03;28.20;56.40
21275;DHT22;36472;52.170;20.884;2022-08-30T15:59:32;28.50;55.70
21275;DHT22;36472;52.170;20.884;2022-08-30T16:02:03;28.60;55.00